Time;durP1;ratioP1;P1;durP2;ratioP2;P2;SDS_P1;SDS_P2;PMS_P1;PMS_P2;Temp;Humidity;BMP_temperature;BMP_pressure;BME280_temperature;BME280_humidity;BME280_pressure;Samples;Min_cycle;Max_cycle;Signal;HPM_P1;HPM_P2
2021/08/28 00:02:29;;;;;;;5.30;2.67;;;18.60;99.90;;;;;;5072651;28;20509;-74
2021/08/28 00:05:35;;;;;;;4.47;2.28;;;18.60;99.90;;;;;;5073150;28;20047;-73
2021/08/28 00:08:39;;;;;;;4.03;2.00;;;18.50;99.90;;;;;;5072785;28;20047;-73
2021/08/28 00:11:42;;;;;;;3.95;2.50;;;18.50;99.90;;;;;;5072363;28;20047;-73
2021/08/28 00:14:46;;;;;;;3.22;2.20;;;18.50;99.90;;;;;;5072782;28;20040;-73
2021/08/28 00:17:51;;;;;;;4.75;2.50;;;18.50;99.90;;;;;;5072452;28;20064;-73
2021/08/28 00:20:54;;;;;;;4.00;2.42;;;18.40;99.90;;;;;;5072435;28;20031;-73
2021/08/28 00:23:58;;;;;;;4.90;2.80;;;18.30;99.90;;;;;;5060191;28;20043;-73
2021/08/28 00:27:02;;;;;;;4.63;2.42;;;18.30;99.90;;;;;;5072426;28;20051;-73
2021/08/28 00:30:08;;;;;;;3.40;2.20;;;18.30;99.90;;;;;;5072484;28;20051;-73
2021/08/28 00:33:15;;;;;;;3.25;2.50;;;18.30;99.90;;;;;;5072376;28;20047;-73
2021/08/28 00:36:19;;;;;;;4.85;2.42;;;18.30;99.90;;;;;;5060186;28;20044;-73
2021/08/28 00:39:23;;;;;;;5.78;2.70;;;18.40;99.90;;;;;;5072344;28;20073;-74
2021/08/28 00:42:27;;;;;;;3.35;2.58;;;18.40;99.90;;;;;;5082740;28;20055;-73
2021/08/28 00:45:33;;;;;;;3.58;2.38;;;18.30;99.90;;;;;;5072409;28;20051;-73
2021/08/28 00:48:37;;;;;;;8.90;3.47;;;18.20;99.90;;;;;;5072333;28;20394;-73
2021/08/28 00:51:41;;;;;;;6.68;2.90;;;18.20;99.90;;;;;;5059581;28;20469;-73
2021/08/28 00:54:48;;;;;;;4.68;2.78;;;18.10;99.90;;;;;;5059566;28;20047;-73
2021/08/28 00:57:58;;;;;;;7.68;2.92;;;18.00;99.90;;;;;;5071784;28;20044;-73
2021/08/28 01:01:10;;;;;;;5.10;2.63;;;18.00;99.90;;;;;;5081965;28;20059;-73
2021/08/28 01:04:20;;;;;;;4.95;3.20;;;18.00;99.90;;;;;;5071771;28;20055;-73
2021/08/28 01:07:37;;;;;;;6.50;3.20;;;18.00;99.90;;;;;;5059610;28;20036;-73
2021/08/28 01:11:18;;;;;;;4.65;2.58;;;18.00;99.90;;;;;;5043515;28;20043;-73
2021/08/28 01:14:35;;;;;;;3.90;2.45;;;17.90;99.90;;;;;;5059216;28;20040;-73
2021/08/28 01:17:45;;;;;;;4.47;2.95;;;17.90;99.90;;;;;;5082037;28;20047;-73
2021/08/28 01:21:04;;;;;;;6.90;3.05;;;17.90;99.90;;;;;;5058731;28;20044;-73
2021/08/28 01:24:09;;;;;;;4.93;2.88;;;17.90;99.90;;;;;;5071135;28;20047;-73
2021/08/28 01:27:41;;;;;;;4.30;2.83;;;18.00;99.90;;;;;;5071452;28;20043;-73
2021/08/28 01:30:48;;;;;;;4.57;3.00;;;18.20;99.90;;;;;;5081826;28;20043;-73
2021/08/28 01:33:55;;;;;;;4.82;2.92;;;18.20;99.90;;;;;;5058930;28;20056;-72
2021/08/28 01:37:02;;;;;;;4.63;2.45;;;18.20;99.90;;;;;;5058835;28;20052;-73
2021/08/28 01:40:27;;;;;;;4.47;2.70;;;18.30;99.90;;;;;;5071181;28;20048;-74
2021/08/28 01:43:37;;;;;;;8.05;2.55;;;18.30;99.90;;;;;;5070776;28;20056;-73
2021/08/28 01:46:43;;;;;;;2.92;2.28;;;18.40;99.90;;;;;;5058524;28;20051;-73
2021/08/28 01:49:49;;;;;;;4.15;2.50;;;18.50;99.90;;;;;;5081496;28;20071;-73
2021/08/28 01:52:53;;;;;;;3.75;2.17;;;18.60;99.90;;;;;;5057978;28;20474;-73
2021/08/28 01:56:02;;;;;;;3.78;2.42;;;18.70;99.90;;;;;;5058456;28;20496;-73
2021/08/28 01:59:08;;;;;;;5.00;2.90;;;18.80;99.90;;;;;;5058239;28;20393;-73
2021/08/28 02:02:36;;;;;;;3.97;2.30;;;18.80;99.90;;;;;;5057865;28;20060;-73
2021/08/28 02:05:47;;;;;;;6.25;2.72;;;18.90;99.90;;;;;;5057920;28;20043;-73
2021/08/28 02:09:00;;;;;;;3.83;2.27;;;18.90;99.90;;;;;;5057825;28;20048;-73
2021/08/28 02:12:16;;;;;;;9.15;2.92;;;19.00;99.90;;;;;;5079211;28;20485;-73
2021/08/28 02:15:34;;;;;;;4.88;2.55;;;19.00;99.90;;;;;;5057000;28;20039;-74
2021/08/28 02:18:54;;;;;;;4.50;2.90;;;19.00;99.90;;;;;;5080618;28;20048;-73
2021/08/28 02:22:17;;;;;;;5.20;2.45;;;19.10;99.90;;;;;;5080676;28;20230;-73
2021/08/28 02:25:51;;;;;;;6.07;2.88;;;18.90;99.90;;;;;;5049917;28;20036;-74
2021/08/28 02:29:02;;;;;;;3.50;2.33;;;18.90;99.90;;;;;;5057914;28;20391;-74
2021/08/28 02:32:08;;;;;;;4.13;2.50;;;18.70;99.90;;;;;;5080808;28;20044;-74
2021/08/28 02:35:26;;;;;;;3.25;2.45;;;18.60;99.90;;;;;;5057611;28;20398;-73
2021/08/28 02:38:30;;;;;;;6.15;2.42;;;18.50;99.90;;;;;;5057364;28;20055;-74
2021/08/28 02:41:36;;;;;;;7.07;2.70;;;18.50;99.90;;;;;;5057240;28;20047;-73
2021/08/28 02:44:43;;;;;;;6.30;2.95;;;18.40;99.90;;;;;;5057161;28;20040;-73
2021/08/28 02:47:51;;;;;;;4.68;2.30;;;18.40;99.90;;;;;;5057435;28;20043;-74
2021/08/28 02:50:57;;;;;;;7.13;2.78;;;18.30;99.90;;;;;;5069534;28;20048;-73
2021/08/28 02:54:02;;;;;;;3.55;2.60;;;18.30;99.90;;;;;;5080626;28;20043;-74
2021/08/28 02:57:08;;;;;;;4.20;2.67;;;18.20;99.90;;;;;;5080673;28;20040;-74
2021/08/28 03:00:13;;;;;;;6.38;2.97;;;18.10;99.90;;;;;;5057434;28;20047;-73
2021/08/28 03:03:18;;;;;;;5.22;2.38;;;18.10;99.90;;;;;;5057851;28;20048;-73
2021/08/28 03:06:28;;;;;;;5.40;2.90;;;18.10;99.90;;;;;;5069895;28;20051;-73
2021/08/28 03:09:34;;;;;;;3.97;2.40;;;18.10;99.90;;;;;;5080561;28;20048;-73
2021/08/28 03:12:39;;;;;;;4.25;2.55;;;18.00;99.90;;;;;;5057402;28;20044;-73
2021/08/28 03:15:45;;;;;;;3.60;2.58;;;18.00;99.90;;;;;;5070002;28;20043;-73
2021/08/28 03:18:55;;;;;;;8.35;3.63;;;18.00;99.90;;;;;;5057423;28;20051;-73
2021/08/28 03:22:03;;;;;;;6.38;3.78;;;18.00;99.90;;;;;;5057058;28;20323;-73
2021/08/28 03:25:09;;;;;;;5.70;3.50;;;18.00;99.90;;;;;;5061535;28;20047;-74
2021/08/28 03:28:15;;;;;;;4.47;2.78;;;17.90;99.90;;;;;;5061654;28;20047;-74
2021/08/28 03:31:22;;;;;;;5.72;2.63;;;17.90;99.90;;;;;;5073193;28;20405;-73
2021/08/28 03:34:27;;;;;;;7.38;2.63;;;17.90;99.90;;;;;;5073569;28;20044;-74
2021/08/28 03:37:33;;;;;;;4.40;3.00;;;17.80;99.90;;;;;;5060584;28;20414;-73
2021/08/28 03:40:38;;;;;;;6.03;2.67;;;17.80;99.90;;;;;;5060889;28;20051;-74
2021/08/28 03:43:44;;;;;;;4.72;2.80;;;17.80;99.90;;;;;;5084187;28;20046;-73
2021/08/28 03:46:50;;;;;;;6.68;2.47;;;17.80;99.90;;;;;;5073059;28;20390;-73
2021/08/28 03:49:55;;;;;;;5.18;2.95;;;17.90;99.90;;;;;;5072623;28;20047;-73
2021/08/28 03:52:59;;;;;;;5.50;2.92;;;17.90;99.90;;;;;;5083653;28;20497;-73
2021/08/28 03:56:05;;;;;;;5.22;3.00;;;17.80;99.90;;;;;;5060965;28;20485;-73
2021/08/28 03:59:09;;;;;;;3.53;2.40;;;17.80;99.90;;;;;;5060655;28;20051;-74
2021/08/28 04:02:14;;;;;;;4.95;2.70;;;17.90;99.90;;;;;;5083693;28;20052;-73
2021/08/28 04:05:28;;;;;;;5.35;2.65;;;17.90;99.90;;;;;;5083869;28;20044;-74
2021/08/28 04:08:32;;;;;;;7.72;2.78;;;18.00;99.90;;;;;;5060590;28;20051;-74
2021/08/28 04:11:38;;;;;;;4.78;2.67;;;18.00;99.90;;;;;;5083660;28;20047;-74
2021/08/28 04:14:43;;;;;;;3.78;2.38;;;18.10;99.90;;;;;;5072370;28;20044;-74
2021/08/28 04:17:47;;;;;;;4.22;2.72;;;18.20;99.90;;;;;;5060273;28;20035;-74
2021/08/28 04:20:51;;;;;;;4.68;2.70;;;18.30;99.90;;;;;;5082702;28;20051;-74
2021/08/28 04:24:08;;;;;;;7.25;2.90;;;18.30;99.90;;;;;;5083532;28;20424;-74
2021/08/28 04:27:30;;;;;;;5.07;2.47;;;18.30;99.90;;;;;;5072072;28;20047;-73
2021/08/28 04:30:35;;;;;;;3.70;2.20;;;18.30;99.90;;;;;;5059537;28;20406;-74
2021/08/28 04:33:41;;;;;;;3.83;2.30;;;18.30;99.90;;;;;;5059739;28;20043;-74
2021/08/28 04:36:46;;;;;;;5.95;2.60;;;18.30;99.90;;;;;;5058850;28;20402;-73
2021/08/28 04:39:50;;;;;;;6.57;2.88;;;18.40;99.90;;;;;;5082823;28;20437;-73
2021/08/28 04:42:54;;;;;;;4.82;2.50;;;18.40;99.90;;;;;;5059516;28;20051;-73
2021/08/28 04:46:07;;;;;;;5.47;2.78;;;18.40;99.90;;;;;;5059235;28;20055;-73
2021/08/28 04:49:19;;;;;;;5.40;2.70;;;18.50;99.90;;;;;;5059570;28;20052;-74
2021/08/28 04:52:52;;;;;;;3.80;2.33;;;18.60;99.90;;;;;;5071710;28;20040;-74
2021/08/28 04:55:58;;;;;;;3.90;2.40;;;18.60;99.90;;;;;;5082945;28;20044;-74
2021/08/28 04:59:02;;;;;;;5.05;2.67;;;18.70;99.90;;;;;;5059472;28;20056;-74
2021/08/28 05:02:24;;;;;;;6.20;3.22;;;18.70;99.90;;;;;;5071930;28;20051;-74
2021/08/28 05:05:34;;;;;;;4.20;2.78;;;18.80;99.90;;;;;;5059137;28;20516;-73
2021/08/28 05:08:39;;;;;;;7.93;2.72;;;18.90;99.90;;;;;;5059361;28;20035;-74
2021/08/28 05:11:44;;;;;;;7.40;2.60;;;18.90;99.90;;;;;;5082618;28;20048;-74
2021/08/28 05:14:48;;;;;;;3.88;2.38;;;18.80;99.90;;;;;;5082513;28;20035;-73
2021/08/28 05:17:52;;;;;;;4.88;2.60;;;18.70;99.90;;;;;;5059048;28;20087;-74
2021/08/28 05:21:00;;;;;;;2.65;2.00;;;18.70;99.90;;;;;;5081816;28;20075;-74
2021/08/28 05:24:29;;;;;;;5.28;2.58;;;18.70;99.90;;;;;;5071254;28;20043;-74
2021/08/28 05:27:35;;;;;;;4.72;2.42;;;18.80;99.90;;;;;;5058580;28;20405;-74
2021/08/28 05:30:40;;;;;;;4.78;2.33;;;18.80;99.90;;;;;;5081520;28;20508;-74
2021/08/28 05:33:45;;;;;;;6.15;2.50;;;18.70;99.90;;;;;;5059075;28;20051;-74
2021/08/28 05:36:54;;;;;;;6.97;2.40;;;18.70;99.90;;;;;;5058247;28;20035;-74
2021/08/28 05:40:21;;;;;;;6.32;2.38;;;18.70;99.90;;;;;;5070765;28;20044;-74
2021/08/28 05:43:25;;;;;;;6.22;2.35;;;18.70;99.90;;;;;;5058562;28;20111;-74
2021/08/28 05:46:35;;;;;;;4.88;2.17;;;18.80;99.90;;;;;;5070581;28;20035;-74
2021/08/28 05:49:46;;;;;;;4.03;2.00;;;18.90;99.90;;;;;;5058363;28;20067;-73
2021/08/28 05:52:56;;;;;;;5.00;2.75;;;18.90;99.90;;;;;;5058141;28;20036;-73
2021/08/28 05:56:00;;;;;;;3.00;2.28;;;18.90;99.90;;;;;;5058066;28;20039;-73
2021/08/28 05:59:06;;;;;;;4.03;2.35;;;18.90;99.90;;;;;;5057849;28;20047;-73
2021/08/28 06:02:11;;;;;;;3.50;2.20;;;19.00;99.90;;;;;;5070271;28;20047;-74
2021/08/28 06:05:16;;;;;;;7.10;2.30;;;19.10;99.90;;;;;;5058034;28;20040;-74
2021/08/28 06:08:49;;;;;;;5.70;2.42;;;19.20;99.90;;;;;;5070353;28;20055;-74
2021/08/28 06:11:57;;;;;;;3.42;2.20;;;19.20;99.90;;;;;;5070088;28;20394;-74
2021/08/28 06:15:25;;;;;;;6.70;2.67;;;18.40;99.90;;;;;;5070474;28;20043;-74
2021/08/28 06:18:35;;;;;;;8.88;2.65;;;18.00;99.90;;;;;;5057809;28;20402;-75
2021/08/28 06:21:39;;;;;;;5.57;3.33;;;17.90;99.90;;;;;;5057512;28;20040;-75
2021/08/28 06:24:46;;;;;;;5.93;2.55;;;17.80;99.90;;;;;;5081381;28;20126;-75
2021/08/28 06:27:58;;;;;;;4.57;2.45;;;17.60;99.90;;;;;;5070469;28;20043;-74
2021/08/28 06:31:09;;;;;;;13.32;3.40;;;17.40;99.90;;;;;;5057349;28;20051;-73
2021/08/28 06:34:13;;;;;;;6.65;3.42;;;17.20;99.90;;;;;;5058027;28;20046;-73
2021/08/28 06:37:18;;;;;;;9.18;3.80;;;17.00;99.90;;;;;;5080737;28;20043;-73
2021/08/28 06:40:40;;;;;;;18.55;3.90;;;17.00;99.90;;;;;;5070144;28;20047;-73
2021/08/28 06:44:06;;;;;;;9.50;3.80;;;16.90;99.90;;;;;;5070329;28;20044;-73
2021/08/28 07:21:39;;;;;;;10.68;5.03;;;16.10;99.90;;;;;;5073502;28;20039;-73
2021/08/28 07:24:44;;;;;;;9.55;5.43;;;16.10;99.90;;;;;;5073831;28;20417;-74
2021/08/28 07:27:50;;;;;;;8.88;4.53;;;16.20;99.90;;;;;;5061307;28;20493;-73
2021/08/28 07:31:14;;;;;;;9.68;4.32;;;16.20;99.90;;;;;;5072908;28;20039;-74
2021/08/28 07:34:25;;;;;;;9.88;5.28;;;16.20;99.90;;;;;;5061170;28;20433;-73
2021/08/28 07:37:30;;;;;;;6.10;4.07;;;16.30;99.90;;;;;;5060995;28;20031;-73
2021/08/28 07:40:33;;;;;;;9.02;4.40;;;16.40;99.90;;;;;;5084185;28;20044;-73
2021/08/28 07:43:38;;;;;;;7.10;4.40;;;16.50;99.90;;;;;;5061435;28;20063;-73
2021/08/28 07:46:43;;;;;;;6.75;3.70;;;16.60;99.90;;;;;;5061197;28;20047;-73
2021/08/28 07:50:03;;;;;;;5.78;3.75;;;16.60;99.90;;;;;;5060558;28;20398;-73
2021/08/28 07:53:07;;;;;;;7.03;3.65;;;16.70;99.90;;;;;;5060849;28;20052;-73
2021/08/28 07:56:17;;;;;;;7.35;3.75;;;16.80;99.90;;;;;;5060961;28;20402;-73
2021/08/28 07:59:21;;;;;;;6.70;3.70;;;16.40;99.90;;;;;;5060364;28;20052;-73
2021/08/28 08:02:25;;;;;;;7.43;3.45;;;16.70;99.90;;;;;;5083545;28;20441;-73
2021/08/28 08:05:29;;;;;;;8.57;3.45;;;17.00;99.90;;;;;;5083799;28;20039;-73
2021/08/28 08:09:09;;;;;;;6.13;3.28;;;17.40;99.90;;;;;;5072754;28;20489;-73
2021/08/28 08:12:32;;;;;;;8.27;2.78;;;18.00;99.90;;;;;;5072351;28;20596;-73
2021/08/28 08:15:55;;;;;;;5.20;2.83;;;18.40;99.90;;;;;;5072597;28;20060;-73
2021/08/28 08:19:35;;;;;;;5.90;3.42;;;18.30;99.90;;;;;;5012521;28;20176;-72
2021/08/28 08:22:58;;;;;;;9.13;3.40;;;17.60;99.90;;;;;;5072261;28;20626;-73
2021/08/28 08:26:21;;;;;;;5.50;3.42;;;17.30;99.90;;;;;;5072662;28;20395;-73
2021/08/28 08:29:43;;;;;;;7.95;4.38;;;17.20;99.90;;;;;;5072059;28;20055;-72
2021/08/28 08:33:02;;;;;;;7.90;3.35;;;17.00;99.90;;;;;;5059947;28;20044;-73
2021/08/28 08:36:09;;;;;;;8.23;4.13;;;17.00;99.90;;;;;;5082911;28;20055;-72
2021/08/28 08:39:14;;;;;;;5.47;3.83;;;16.70;99.90;;;;;;5072178;28;20051;-73
2021/08/28 08:42:22;;;;;;;8.13;3.78;;;16.80;99.90;;;;;;5059437;28;20040;-73
2021/08/28 08:45:27;;;;;;;6.38;3.70;;;16.90;99.90;;;;;;5071968;28;20073;-73
2021/08/28 08:48:33;;;;;;;5.35;3.55;;;17.30;99.90;;;;;;5059681;28;20048;-73
2021/08/28 08:51:37;;;;;;;6.18;3.28;;;17.40;99.90;;;;;;5059131;28;20055;-73
2021/08/28 08:54:43;;;;;;;4.10;2.80;;;17.40;99.90;;;;;;5059529;28;20047;-73
2021/08/28 08:57:48;;;;;;;6.07;3.95;;;17.60;99.90;;;;;;5059171;28;20044;-73
2021/08/28 09:00:52;;;;;;;10.63;3.60;;;17.80;99.90;;;;;;5059060;28;20513;-73
2021/08/28 09:04:05;;;;;;;5.13;3.10;;;18.00;99.90;;;;;;5071806;28;20489;-73
2021/08/28 09:07:12;;;;;;;9.40;2.65;;;18.30;99.90;;;;;;5071415;28;20051;-72
2021/08/28 09:10:17;;;;;;;4.57;2.55;;;18.50;99.90;;;;;;5071501;28;20493;-73
2021/08/28 09:13:24;;;;;;;4.43;2.28;;;18.40;99.90;;;;;;5071471;28;20394;-73
2021/08/28 09:16:32;;;;;;;6.20;2.97;;;18.50;99.90;;;;;;5071660;28;20047;-73
2021/08/28 09:19:38;;;;;;;4.82;2.65;;;18.40;99.90;;;;;;5071223;28;20043;-73
2021/08/28 09:22:43;;;;;;;3.25;2.47;;;18.30;99.90;;;;;;5070785;28;20039;-72
2021/08/28 09:25:48;;;;;;;7.10;3.03;;;18.30;99.90;;;;;;5072106;28;20051;-73
2021/08/28 09:28:55;;;;;;;3.45;2.78;;;18.40;99.90;;;;;;5058842;28;20051;-73
2021/08/28 09:32:00;;;;;;;6.00;2.55;;;18.70;99.90;;;;;;5070783;28;20497;-74
2021/08/28 09:35:08;;;;;;;4.05;2.13;;;19.00;99.90;;;;;;5071220;28;20418;-73
2021/08/28 09:38:15;;;;;;;4.95;2.45;;;19.40;99.90;;;;;;5070924;28;20040;-74
2021/08/28 09:41:29;;;;;;;5.75;2.42;;;19.10;99.90;;;;;;5070506;28;20063;-74
2021/08/28 09:44:42;;;;;;;5.28;2.60;;;19.50;99.90;;;;;;5070674;28;20406;-74
2021/08/28 09:47:46;;;;;;;4.03;2.33;;;20.10;99.90;;;;;;5070985;28;20386;-75
2021/08/28 09:50:54;;;;;;;4.20;2.85;;;19.20;99.90;;;;;;5069910;28;20047;-74
2021/08/28 09:54:00;;;;;;;7.88;3.40;;;19.40;99.90;;;;;;5070813;28;20040;-75
2021/08/28 09:57:04;;;;;;;7.20;2.90;;;19.80;99.90;;;;;;5070432;28;20493;-74
2021/08/28 10:00:08;;;;;;;8.00;3.17;;;20.10;99.90;;;;;;5070665;28;20051;-74
2021/08/28 10:03:17;;;;;;;5.97;2.50;;;19.80;99.90;;;;;;5070563;28;20051;-74
2021/08/28 10:06:21;;;;;;;4.70;2.20;;;19.90;99.90;;;;;;5070554;28;20056;-74
2021/08/28 10:09:27;;;;;;;4.55;2.22;;;19.50;99.90;;;;;;5070485;28;20047;-74
2021/08/28 10:12:35;;;;;;;5.25;2.42;;;19.70;99.90;;;;;;5070091;28;20375;-75
2021/08/28 10:15:41;;;;;;;3.88;2.20;;;20.50;99.90;;;;;;5070604;28;20044;-74
2021/08/28 10:18:47;;;;;;;5.78;3.58;;;20.80;99.90;;;;;;5070325;28;20040;-75
2021/08/28 10:21:53;;;;;;;6.00;3.42;;;19.80;99.90;;;;;;5070038;28;20047;-74
2021/08/28 10:25:03;;;;;;;5.60;3.10;;;19.00;99.90;;;;;;5070287;28;20055;-74
2021/08/28 10:28:10;;;;;;;5.30;2.90;;;19.30;99.90;;;;;;5070058;28;20040;-74
2021/08/28 10:31:14;;;;;;;4.75;3.28;;;18.80;99.90;;;;;;5069960;28;20040;-74
2021/08/28 10:34:20;;;;;;;9.32;3.70;;;19.20;99.90;;;;;;5057175;28;20040;-74
2021/08/28 10:37:24;;;;;;;9.25;4.32;;;19.40;99.90;;;;;;5070337;28;20047;-75
2021/08/28 10:40:33;;;;;;;7.32;4.30;;;19.60;99.90;;;;;;5070205;28;20040;-75
2021/08/28 10:43:38;;;;;;;8.10;4.00;;;19.30;99.90;;;;;;5069898;28;20047;-74
2021/08/28 10:46:42;;;;;;;7.78;3.30;;;19.60;99.90;;;;;;5080066;28;20047;-75
2021/08/28 10:49:57;;;;;;;10.00;4.00;;;19.60;99.90;;;;;;5057755;28;20048;-75
2021/08/28 10:53:02;;;;;;;6.95;3.58;;;20.70;99.90;;;;;;5057380;28;20402;-74
2021/08/28 10:56:07;;;;;;;5.47;3.30;;;21.00;99.90;;;;;;5069949;28;20071;-74
2021/08/28 10:59:17;;;;;;;5.68;3.13;;;19.60;99.90;;;;;;5070244;28;20052;-74
2021/08/28 11:02:21;;;;;;;5.15;3.20;;;19.00;99.90;;;;;;5069242;28;20063;-74
2021/08/28 11:05:29;;;;;;;4.07;2.85;;;19.40;99.90;;;;;;5069996;28;20047;-75
2021/08/28 11:08:53;;;;;;;6.05;2.70;;;20.30;99.90;;;;;;5069648;28;20044;-74
2021/08/28 11:12:19;;;;;;;3.70;2.40;;;21.20;99.90;;;;;;5069349;28;20047;-75
2021/08/28 11:15:25;;;;;;;4.05;2.05;;;23.30;99.90;;;;;;5070040;28;20060;-75
2021/08/28 11:18:42;;;;;;;3.42;1.77;;;24.00;99.90;;;;;;5069602;28;20048;-74
2021/08/28 11:21:49;;;;;;;4.78;1.60;;;25.10;99.90;;;;;;5069259;28;20394;-74
2021/08/28 11:24:55;;;;;;;2.83;1.58;;;25.60;99.90;;;;;;5069515;28;20493;-74
2021/08/28 11:28:00;;;;;;;3.95;1.77;;;25.50;99.90;;;;;;5069550;28;20394;-74
2021/08/28 11:31:04;;;;;;;5.63;2.00;;;23.60;99.90;;;;;;5069493;28;20044;-75
2021/08/28 11:34:08;;;;;;;2.70;1.63;;;27.40;99.90;;;;;;5069041;28;20035;-75
2021/08/28 11:37:31;;;;;;;3.25;1.35;;;28.20;99.30;;;;;;5069680;28;20047;-75
2021/08/28 11:40:36;;;;;;;5.15;1.23;;;31.30;96.30;;;;;;5069444;28;20048;-75
2021/08/28 11:43:42;;;;;;;1.77;1.45;;;33.00;93.30;;;;;;5069065;28;20043;-75
2021/08/28 11:46:47;;;;;;;2.25;1.20;;;34.60;86.10;;;;;;5073296;28;20521;-72
2021/08/28 11:49:58;;;;;;;1.88;1.10;;;35.20;85.50;;;;;;5073343;28;20052;-75
2021/08/28 11:53:02;;;;;;;3.15;1.17;;;35.70;78.40;;;;;;5072949;28;20036;-76
2021/08/28 11:56:21;;;;;;;2.03;1.30;;;33.50;80.30;;;;;;5073035;28;20493;-75
2021/08/28 11:59:36;;;;;;;1.85;1.20;;;34.50;82.70;;;;;;5069273;28;20051;-75
2021/08/28 12:02:41;;;;;;;1.45;1.10;;;35.20;79.60;;;;;;5057843;28;20036;-75
2021/08/28 12:05:45;;;;;;;1.70;1.00;;;33.50;83.20;;;;;;5066514;28;20668;-75
2021/08/28 12:08:49;;;;;;;1.13;0.90;;;34.70;79.60;;;;;;5053843;28;20036;-76
2021/08/28 12:11:55;;;;;;;3.10;1.00;;;36.40;77.10;;;;;;5053483;28;20044;-75
2021/08/28 12:15:05;;;;;;;2.17;1.00;;;38.20;75.00;;;;;;5053758;28;20051;-75
2021/08/28 12:18:10;;;;;;;1.45;0.93;;;38.80;70.80;;;;;;5054000;28;20051;-75
2021/08/28 12:21:14;;;;;;;2.95;1.08;;;39.20;69.40;;;;;;5052850;28;20052;-75
2021/08/28 12:24:23;;;;;;;2.70;1.00;;;34.10;69.60;;;;;;5053342;28;20044;-75
2021/08/28 12:27:28;;;;;;;1.77;1.10;;;34.10;72.90;;;;;;5073508;28;20048;-75
2021/08/28 12:30:34;;;;;;;2.13;0.93;;;33.30;74.10;;;;;;5073271;28;20051;-75
2021/08/28 12:33:39;;;;;;;4.32;1.40;;;34.10;75.40;;;;;;5073149;28;20389;-75
2021/08/28 12:36:46;;;;;;;1.48;1.10;;;34.40;70.90;;;;;;5090551;28;20059;-75
2021/08/28 12:39:53;;;;;;;1.50;1.10;;;35.00;73.30;;;;;;5072851;28;20052;-74
2021/08/28 12:42:57;;;;;;;3.97;1.65;;;35.30;68.90;;;;;;5071983;28;20043;-75
2021/08/28 12:46:03;;;;;;;1.95;1.20;;;32.70;71.20;;;;;;5073043;28;20513;-74
2021/08/28 12:49:13;;;;;;;3.40;1.00;;;32.70;73.20;;;;;;5072767;28;20048;-74
2021/08/28 12:52:18;;;;;;;1.63;1.10;;;33.90;71.90;;;;;;5072080;28;20051;-74
2021/08/28 12:55:26;;;;;;;2.67;1.20;;;34.00;71.00;;;;;;5072191;28;20047;-74
2021/08/28 12:58:31;;;;;;;2.60;1.00;;;35.60;72.00;;;;;;5072488;28;20055;-75
2021/08/28 13:01:42;;;;;;;2.33;1.00;;;34.40;67.70;;;;;;5059307;28;20051;-74
2021/08/28 13:04:48;;;;;;;2.75;1.45;;;31.60;73.50;;;;;;5048274;28;20069;-74
2021/08/28 13:07:55;;;;;;;4.18;1.30;;;32.00;75.50;;;;;;5068697;28;20052;-74
2021/08/28 13:11:21;;;;;;;1.45;1.27;;;32.10;73.50;;;;;;5056272;28;20039;-74
2021/08/28 13:14:25;;;;;;;2.35;1.35;;;32.10;71.00;;;;;;5071307;28;20387;-74
2021/08/28 13:17:30;;;;;;;2.63;1.30;;;33.00;70.10;;;;;;5071442;28;20067;-74
2021/08/28 13:20:44;;;;;;;1.73;1.30;;;30.40;74.00;;;;;;5071179;28;20048;-73
2021/08/28 13:23:48;;;;;;;4.43;1.50;;;30.50;75.20;;;;;;5051240;28;20035;-73
2021/08/28 13:26:57;;;;;;;2.65;1.30;;;28.00;78.40;;;;;;5066694;28;20048;-74
2021/08/28 13:30:22;;;;;;;4.15;1.50;;;28.80;79.00;;;;;;5047972;28;20043;-74
2021/08/28 13:33:29;;;;;;;1.80;1.20;;;28.20;78.20;;;;;;5070640;28;20047;-74
2021/08/28 13:36:33;;;;;;;3.13;1.33;;;29.80;79.20;;;;;;5050759;28;20060;-74
2021/08/28 13:39:42;;;;;;;1.48;1.10;;;28.90;79.00;;;;;;5058161;28;20119;-73
2021/08/28 13:42:47;;;;;;;1.80;1.48;;;28.90;78.80;;;;;;5068644;28;20051;-74
2021/08/28 13:45:52;;;;;;;2.03;1.40;;;28.50;78.60;;;;;;5050517;28;20044;-74
2021/08/28 13:48:57;;;;;;;2.90;1.70;;;27.20;81.40;;;;;;5064265;28;20051;-74
2021/08/28 13:52:01;;;;;;;3.42;1.83;;;26.50;81.00;;;;;;5061926;28;20411;-76
2021/08/28 13:54:40;;;;;;;2.80;1.45;;;26.10;84.60;;;;;;5121619;27;20190;-54
2021/08/28 13:57:45;;;;;;;3.78;1.85;;;26.30;85.50;;;;;;5094508;28;20035;-54
2021/08/28 14:00:50;;;;;;;2.65;1.50;;;25.40;86.20;;;;;;5084086;28;20044;-57
2021/08/28 14:03:55;;;;;;;2.63;1.85;;;24.60;88.40;;;;;;5086092;28;20037;-52
2021/08/28 14:06:59;;;;;;;2.60;1.42;;;25.30;88.70;;;;;;5084823;28;20597;-52
2021/08/28 14:10:04;;;;;;;3.40;1.50;;;26.20;84.50;;;;;;5083003;28;20391;-52
2021/08/28 14:13:09;;;;;;;3.63;1.70;;;26.20;84.70;;;;;;5083140;28;20041;-57
2021/08/28 14:16:13;;;;;;;2.17;1.50;;;26.10;83.30;;;;;;5085856;28;20529;-55
2021/08/28 14:19:17;;;;;;;1.90;1.38;;;26.60;80.50;;;;;;5090047;28;20028;-55
2021/08/28 14:22:22;;;;;;;2.72;1.40;;;26.30;78.50;;;;;;5079681;28;20041;-52
2021/08/28 14:25:26;;;;;;;4.18;1.35;;;26.00;78.80;;;;;;5086322;28;20041;-52
2021/08/28 14:28:30;;;;;;;3.13;1.52;;;26.20;81.00;;;;;;5084261;28;20037;-52
2021/08/28 14:31:34;;;;;;;2.15;1.45;;;26.40;81.50;;;;;;5089104;28;20041;-53
2021/08/28 14:34:39;;;;;;;3.25;1.67;;;26.50;80.20;;;;;;5083934;28;20040;-52
2021/08/28 14:37:43;;;;;;;3.13;1.60;;;26.70;81.80;;;;;;5083789;28;20610;-53
2021/08/28 14:40:47;;;;;;;4.15;1.70;;;27.00;80.30;;;;;;5073279;28;20036;-58
2021/08/28 14:43:52;;;;;;;3.55;1.77;;;27.10;79.30;;;;;;5086168;28;20040;-52
2021/08/28 14:46:58;;;;;;;2.60;1.40;;;27.10;80.80;;;;;;5084499;28;20036;-52
2021/08/28 14:50:03;;;;;;;1.90;1.35;;;27.10;78.60;;;;;;5082589;28;20036;-55
2021/08/28 14:53:11;;;;;;;3.70;1.63;;;27.20;77.90;;;;;;5082659;28;20387;-52
2021/08/28 14:56:15;;;;;;;3.05;1.50;;;26.70;78.20;;;;;;5082994;28;20028;-53
2021/08/28 14:59:21;;;;;;;2.83;1.50;;;26.90;79.00;;;;;;5082211;28;20040;-53
2021/08/28 15:02:25;;;;;;;3.25;1.75;;;27.10;79.90;;;;;;5072990;28;20434;-55
2021/08/28 15:05:42;;;;;;;3.30;1.60;;;27.10;79.80;;;;;;5054670;28;20036;-53
2021/08/28 15:08:46;;;;;;;2.97;1.80;;;26.90;81.40;;;;;;5069568;28;20040;-58
2021/08/28 15:11:50;;;;;;;3.22;1.58;;;26.80;82.10;;;;;;5071322;28;20036;-52
2021/08/28 15:14:54;;;;;;;3.08;1.48;;;25.80;83.90;;;;;;5071562;28;20490;-52
2021/08/28 15:17:58;;;;;;;5.35;1.90;;;25.60;84.40;;;;;;5069047;28;20028;-52
2021/08/28 15:21:05;;;;;;;3.55;1.60;;;25.80;83.70;;;;;;5071619;28;20040;-51
2021/08/28 15:24:11;;;;;;;5.47;1.73;;;25.90;85.80;;;;;;5070986;28;20040;-51
2021/08/28 15:27:16;;;;;;;3.63;1.70;;;26.10;80.20;;;;;;5070145;28;20040;-51
2021/08/28 15:30:20;;;;;;;3.17;1.25;;;26.20;78.10;;;;;;5072439;28;20033;-52
2021/08/28 15:33:25;;;;;;;4.38;1.70;;;25.90;77.80;;;;;;5072202;28;20052;-56
2021/08/28 15:36:29;;;;;;;2.70;1.58;;;25.60;76.70;;;;;;5071967;28;20597;-51
2021/08/28 15:39:33;;;;;;;2.97;1.40;;;25.20;78.20;;;;;;5071882;28;20395;-55
2021/08/28 15:42:38;;;;;;;2.50;1.40;;;25.30;78.90;;;;;;5069398;28;20037;-52
2021/08/28 15:45:42;;;;;;;2.90;1.40;;;25.40;77.30;;;;;;5071240;28;20036;-51
2021/08/28 15:48:46;;;;;;;2.90;1.40;;;25.40;77.00;;;;;;5072030;28;20028;-52
2021/08/28 15:51:50;;;;;;;3.47;1.42;;;25.20;78.20;;;;;;5070551;28;20032;-53
2021/08/28 15:55:00;;;;;;;1.98;1.10;;;25.00;77.20;;;;;;5069065;28;20047;-52
2021/08/28 15:58:05;;;;;;;1.98;1.40;;;24.90;77.40;;;;;;5069492;28;20601;-53
2021/08/28 16:01:09;;;;;;;2.33;1.40;;;24.90;77.50;;;;;;5069773;28;20040;-53
2021/08/28 16:04:13;;;;;;;2.42;1.73;;;25.00;77.00;;;;;;5057884;28;20036;-51
2021/08/28 16:07:18;;;;;;;3.95;1.33;;;25.10;77.20;;;;;;5069417;28;20040;-51
2021/08/28 16:10:23;;;;;;;2.70;1.58;;;25.10;75.90;;;;;;5077420;28;20040;-52
2021/08/28 16:13:27;;;;;;;1.92;1.52;;;25.20;76.80;;;;;;5089804;28;20391;-52
2021/08/28 16:16:32;;;;;;;2.85;1.45;;;25.20;77.50;;;;;;5090568;28;20382;-55
2021/08/28 16:19:37;;;;;;;4.57;1.60;;;25.20;76.30;;;;;;5091491;28;20032;-54
2021/08/28 16:22:42;;;;;;;3.13;1.40;;;25.20;76.00;;;;;;5091025;28;20040;-51
2021/08/28 16:25:49;;;;;;;2.38;1.65;;;25.00;77.30;;;;;;5090719;28;20032;-51
2021/08/28 16:28:54;;;;;;;6.60;3.90;;;24.90;77.10;;;;;;5078483;28;20590;-51
2021/08/28 16:31:59;;;;;;;12.43;6.10;;;24.90;78.00;;;;;;5090574;28;20036;-52
2021/08/28 16:35:05;;;;;;;7.65;3.92;;;24.90;78.60;;;;;;5090882;28;20043;-51
2021/08/28 16:38:09;;;;;;;2.22;1.40;;;24.80;78.80;;;;;;5090649;28;20032;-52
2021/08/28 16:41:13;;;;;;;3.53;1.52;;;24.50;79.70;;;;;;5090499;28;20044;-53
2021/08/28 16:44:17;;;;;;;5.38;1.48;;;24.00;81.30;;;;;;5090593;28;20484;-54
2021/08/28 16:47:22;;;;;;;3.72;1.65;;;23.70;81.90;;;;;;5090034;28;20051;-52
2021/08/28 16:50:28;;;;;;;3.90;1.33;;;23.40;82.80;;;;;;5090644;28;20552;-51
2021/08/28 16:53:33;;;;;;;2.50;1.50;;;23.20;83.80;;;;;;5090395;28;20051;-51